Terminal Aerodrome Forecast
Issued by NWS Atlanta, GA

Home | Current Version | Previous Version | Text Only | Print | Product List | Glossary On
Versions: 1 2 3 4 5 6 7 8 9 10 11 12 13 14 15 16 17 18 19 20 21 22 23 24 25 26 27 28
000
FTUS42 KFFC 212339
TAFCSG
TAF
KCSG 212339Z 2200/2224 22005KT P6SM SCT015
     FM220200 18005KT P6SM BKN025
     FM220400 18005KT 5SM BR VCSH BKN007 OVC012
     FM220500 20007G15KT 3SM TSRA BR OVC005CB
     FM221300 23008KT 3SM BR OVC010 PROB30 2218/2223 3SM TSRA
      BKN020CB=

USA.gov is the U.S. government's official web portal to all federal, state and local government web resources and services.